WEATHER DATA

YESTERDAY
Time Temp. Dewp. Hum. Bar.
00:05 6.5 4 84 1030.4
00:15 6.4 3.9 84 1030.3
00:25 6.3 4 85 1030.3
00:35 6.2 3.9 85 1030.1
00:45 6.2 3.9 85 1030.1
00:55 6.3 4 85 1030.1
01:05 6.2 3.9 85 1030
01:16 6.1 3.8 85 1030
01:25 6.1 3.8 85 1030
01:35 6.1 3.8 85 1030
01:45 6.1 3.9 86 1030
01:56 6.1 3.9 86 1030
02:06 6 3.8 86 1030
02:15 6 3.8 86 1030
02:26 5.9 3.7 86 1029.9
02:36 5.8 3.6 86 1029.9
02:46 5.8 3.6 86 1029.8
02:56 5.7 3.5 86 1029.8
03:06 5.7 3.5 86 1029.7
03:16 5.6 3.4 86 1029.6
03:26 5.5 3.3 86 1029.5
03:37 5.4 3.2 86 1029.3
03:46 5.5 3.5 87 1029.2
03:56 5.4 3.4 87 1029.1
04:06 5.3 3.3 87 1029.1
04:17 5.3 3.3 87 1029
04:27 5.3 3.3 87 1028.8
04:36 5.3 3.3 87 1028.7
04:47 5.2 3.2 87 1028.7
04:57 5.2 3.2 87 1028.6
05:07 5.2 3.2 87 1028.6
05:17 5.2 3.2 87 1028.5
05:27 5.2 3.2 87 1028.4
05:37 5.1 3.1 87 1028.4
05:47 5 3 87 1028.4
05:58 4.9 2.9 87 1028.4
06:08 4.8 2.8 87 1028.4
06:17 4.8 2.8 87 1028.3
06:27 4.7 2.7 87 1028.3
06:38 4.5 2.5 87 1028.1
06:48 4.5 2.5 87 1028.1
06:57 4.5 2.5 87 1028.1
07:08 4.4 2.4 87 1028
07:18 4.3 2.3 87 1027.9
07:28 4.3 2.3 87 1027.8
07:38 4.3 2.3 87 1027.7
07:48 4.4 2.4 87 1027.5
07:58 4.5 2.7 88 1027.5
08:08 4.6 2.6 87 1027.6
08:19 4.6 2.6 87 1027.6
08:29 4.9 3.1 88 1027.5
08:38 5.7 4 89 1027.4
08:48 6.7 4.9 88 1027.4
08:59 7.7 5.5 86 1027.3
09:09 8.7 6 83 1027.2
09:18 9.5 6.2 80 1027.3
09:29 10.5 6.6 77 1027.2
09:39 11.5 6.8 73 1027.2
09:49 11.7 7 73 1027.2
09:59 11.7 6.6 71 1027.1
10:09 12.5 7.2 70 1027
10:19 13.6 7.8 68 1027
10:29 14.6 8.1 65 1026.8
10:40 15.4 8.2 62 1026.7
10:50 15.7 8.4 62 1026.7
10:59 15.4 7.9 61 1026.6
11:09 15.3 8.1 62 1026.5
11:20 15 7.5 61 1026.6
11:30 15.4 8.2 62 1026.5
11:40 15.9 8.9 63 1026.3
11:50 16.1 8.3 60 1026.3
12:00 15.9 8.2 60 1026.3
12:10 15.3 7.8 61 1026.2
12:20 15.3 8.1 62 1026.2
12:30 14.8 7.8 63 1026.1
12:40 13.6 6.9 64 1025.9
12:50 13 7.2 68 1025.8
13:01 12.8 7.3 69 1025.8
13:11 12.9 7.4 69 1025.8
13:20 13.1 7.5 69 1025.8
13:30 13.2 7.6 69 1025.8
13:41 13.1 7.5 69 1025.7
13:51 13.1 7.5 69 1025.6
14:01 13.2 7.6 69 1025.5
14:11 13.4 7.8 69 1025.4
14:21 13.3 7.3 67 1025.4
14:31 13.1 7.3 68 1025.5
14:41 13.4 8 70 1025.4
14:51 13.2 7.6 69 1025.3
15:01 13.1 7.8 70 1025.1
15:11 13.2 7.6 69 1025.1
15:22 13.6 8.4 71 1024.9
15:32 14 8.4 69 1024.7
15:41 14 8 67 1024.7
15:51 13.9 8.3 69 1024.5
16:02 13.7 8.1 69 1024.4
16:12 13.7 8.3 70 1024.3
16:22 13.6 8.2 70 1024.2
16:32 13.6 8.4 71 1024
16:42 13.6 8.4 71 1023.8
16:52 13.4 8 70 1023.5
17:02 13.2 8.1 71 1023.4
17:13 13.1 8.2 72 1023.4
17:22 12.9 8.2 73 1023.4
17:32 12.8 8.3 74 1023.2
17:43 12.6 8.1 74 1023.2
17:53 12.4 7.9 74 1023.1
18:03 12.2 7.9 75 1023.1
18:12 11.9 7.6 75 1023
18:23 11.7 7.4 75 1022.9
18:33 11.4 7.3 76 1022.8
18:43 11.1 7.2 77 1022.6
18:53 10.8 6.7 76 1022.4
19:03 10.6 6.7 77 1022.4
19:13 10.3 6.5 77 1022.3
19:23 10 6.3 78 1022.3
19:34 9.8 6.3 79 1022.3
19:43 9.5 6 79 1022.5
19:53 9.2 5.9 80 1022.3
20:04 9.2 5.9 80 1022.4
20:14 9.1 6 81 1022.4
20:24 8.9 5.8 81 1022.4
20:33 8.8 5.7 81 1022.5
20:44 8.6 5.7 82 1022.5
20:54 8.3 5.4 82 1022.4
21:04 8.2 5.1 81 1022.4
21:14 8.1 5 81 1022.3
21:24 7.9 4.8 81 1022.3
21:34 7.7 4.7 81 1022.2
21:44 7.5 4.6 82 1022.3
21:55 7.4 4.5 82 1022.2
22:04 7.3 4.4 82 1022.2
22:14 7.1 4.2 82 1022.2
22:24 7.1 4.2 82 1022.3
22:35 6.9 4 82 1022.3
22:45 6.7 4 83 1022.3
22:54 6.7 4 83 1022.4
23:05 6.6 3.9 83 1022.4
23:15 6.6 3.9 83 1022.4
23:25 6.5 4 84 1022.4
23:35 6.4 3.7 83 1022.4
23:45 6.4 3.9 84 1022.4
23:55 6.3 3.8 84 1022.4

DAY STATISTIC

2021-10-24
TEMPERATURE
AVERAGE
9.2
HIGH
16.1
11:50
LOW
4.3
07:18
PRESSURE
AVERAGE
1026.0
HIGH
1030.4
00:05
LOW
1022.2
21:34
DEWPOINT
AVERAGE
5.5
HIGH
8.9
11:40
LOW
2.3
07:18
HUMIDITY
AVERAGE
78
HIGH
89
08:38
LOW
60
11:50
TEMPERATURE (°C)
LOW
4.3
HIGH
16.1
AVERAGE
9.2
PRESSURE (hpa)
LOW
1022.2
HIGH
1030.4
AVERAGE
1026.0
DEVICE